Time,TemperatureF,DewpointF,PressureIn,WindDirection,WindDirectionDegrees,WindSpeedMPH,WindSpeedGustMPH,Humidity,HourlyPrecipIn,Conditions,Clouds,dailyrainin,SoftwareType,DateUTC
2013-06-13 00:08:00,85.1,34.5,29.90,West,270,2.5,3.1,17,0.00,,,0.00,WUHU216HW,2013-06-13 07:08:00,
2013-06-13 00:18:00,85.0,36.0,29.90,NW,315,3.1,6.3,18,0.00,,,0.00,WUHU216HW,2013-06-13 07:18:00,
2013-06-13 00:28:00,85.1,36.2,29.90,NW,315,4.7,5.4,18,0.00,,,0.00,WUHU216HW,2013-06-13 07:28:00,
2013-06-13 00:38:00,85.1,36.2,29.91,SE,135,0.4,2.2,18,0.00,,,0.00,WUHU216HW,2013-06-13 07:38:00,
2013-06-13 00:48:00,84.6,35.7,29.91,SSW,203,1.8,4.0,18,0.00,,,0.00,WUHU216HW,2013-06-13 07:48:00,
2013-06-13 00:58:00,84.1,37.0,29.92,SSW,203,1.6,4.5,19,0.00,,,0.00,WUHU216HW,2013-06-13 07:58:00,
2013-06-13 01:08:00,84.4,39.1,29.92,West,270,5.1,5.1,20,0.00,,,0.00,WUHU216HW,2013-06-13 08:08:00,
2013-06-13 01:18:00,84.4,37.4,29.92,WNW,293,0.4,3.1,19,0.00,,,0.00,WUHU216HW,2013-06-13 08:18:00,
2013-06-13 01:28:00,83.9,39.7,29.92,WSW,248,1.1,1.8,21,0.00,,,0.00,WUHU216HW,2013-06-13 08:28:00,
2013-06-13 01:38:00,83.3,39.3,29.93,SW,225,0.0,2.5,21,0.00,,,0.00,WUHU216HW,2013-06-13 08:38:00,
2013-06-13 01:48:00,82.6,39.7,29.93,SSW,203,1.1,1.8,22,0.00,,,0.00,WUHU216HW,2013-06-13 08:48:00,
2013-06-13 01:58:00,82.1,39.2,29.93,SE,135,1.6,1.8,22,0.00,,,0.00,WUHU216HW,2013-06-13 08:58:00,
2013-06-13 02:08:00,81.7,39.0,29.93,ESE,113,0.9,3.1,22,0.00,,,0.00,WUHU216HW,2013-06-13 09:08:00,
2013-06-13 02:18:00,81.0,40.5,29.93,SE,135,0.4,0.7,24,0.00,,,0.00,WUHU216HW,2013-06-13 09:18:00,
2013-06-13 02:29:00,80.5,40.1,29.94,East,90,0.4,1.3,24,0.00,,,0.00,WUHU216HW,2013-06-13 09:29:00,
2013-06-13 02:39:00,80.5,41.0,29.94,North,0,0.4,1.8,25,0.00,,,0.00,WUHU216HW,2013-06-13 09:39:00,
2013-06-13 02:49:00,80.5,40.1,29.94,NNE,23,0.7,1.8,24,0.00,,,0.00,WUHU216HW,2013-06-13 09:49:00,
2013-06-13 02:59:00,80.3,40.9,29.95,WNW,293,0.4,1.1,25,0.00,,,0.00,WUHU216HW,2013-06-13 09:59:00,
2013-06-13 03:09:00,79.9,40.6,29.95,NE,45,0.2,1.3,25,0.00,,,0.00,WUHU216HW,2013-06-13 10:09:00,
2013-06-13 03:19:00,79.6,41.3,29.95,SE,135,0.0,1.6,26,0.00,,,0.00,WUHU216HW,2013-06-13 10:19:00,
2013-06-13 03:29:00,78.8,40.7,29.94,SE,135,0.0,0.4,26,0.00,,,0.00,WUHU216HW,2013-06-13 10:29:00,
2013-06-13 03:39:00,78.3,42.3,29.95,SE,135,0.0,0.7,28,0.00,,,0.00,WUHU216HW,2013-06-13 10:39:00,
2013-06-13 03:49:00,77.8,41.9,29.95,SSE,158,0.9,0.9,28,0.00,,,0.00,WUHU216HW,2013-06-13 10:49:00,
2013-06-13 03:59:00,77.4,41.6,29.95,SSE,158,0.7,1.3,28,0.00,,,0.00,WUHU216HW,2013-06-13 10:59:00,
2013-06-13 04:09:00,77.2,41.4,29.95,SSW,203,1.1,1.1,28,0.00,,,0.00,WUHU216HW,2013-06-13 11:09:00,
2013-06-13 04:19:00,76.7,41.0,29.95,SE,135,0.4,0.7,28,0.00,,,0.00,WUHU216HW,2013-06-13 11:19:00,
2013-06-13 04:29:00,76.1,40.5,29.96,SE,135,0.4,1.3,28,0.00,,,0.00,WUHU216HW,2013-06-13 11:29:00,
2013-06-13 04:39:00,76.0,41.4,29.96,ENE,68,0.2,1.1,29,0.00,,,0.00,WUHU216HW,2013-06-13 11:39:00,
2013-06-13 04:49:00,76.7,43.0,29.96,East,90,0.9,1.1,30,0.00,,,0.00,WUHU216HW,2013-06-13 11:49:00,
2013-06-13 04:59:00,77.4,42.7,29.96,SE,135,0.4,2.0,29,0.00,,,0.00,WUHU216HW,2013-06-13 11:59:00,
2013-06-13 05:09:00,77.0,43.4,29.96,ENE,68,0.0,0.9,30,0.00,,,0.00,WUHU216HW,2013-06-13 12:09:00,
2013-06-13 05:19:00,76.9,43.2,29.97,SSW,203,0.4,1.1,30,0.00,,,0.00,WUHU216HW,2013-06-13 12:19:00,
2013-06-13 05:29:00,76.3,42.8,29.97,South,180,0.4,1.3,30,0.00,,,0.00,WUHU216HW,2013-06-13 12:29:00,
2013-06-13 05:39:00,76.1,43.3,29.98,SE,135,1.1,1.6,31,0.00,,,0.00,WUHU216HW,2013-06-13 12:39:00,
2013-06-13 05:49:00,76.1,43.3,29.98,ESE,113,0.0,1.6,31,0.00,,,0.00,WUHU216HW,2013-06-13 12:49:00,
2013-06-13 05:59:00,76.3,44.3,29.98,WSW,248,0.0,1.1,32,0.00,,,0.00,WUHU216HW,2013-06-13 12:59:00,
2013-06-13 06:10:00,77.4,46.0,29.98,South,180,0.7,0.7,33,0.00,,,0.00,WUHU216HW,2013-06-13 13:10:00,
2013-06-13 06:20:00,78.8,47.2,29.98,South,180,0.0,0.9,33,0.00,,,0.00,WUHU216HW,2013-06-13 13:20:00,
2013-06-13 06:30:00,79.2,48.2,29.98,SSE,158,0.0,0.4,34,0.00,,,0.00,WUHU216HW,2013-06-13 13:30:00,
2013-06-13 06:40:00,79.6,49.3,29.98,SSE,158,0.0,0.9,35,0.00,,,0.00,WUHU216HW,2013-06-13 13:40:00,
2013-06-13 06:50:00,80.6,49.5,29.98,ESE,113,0.4,0.9,34,0.00,,,0.00,WUHU216HW,2013-06-13 13:50:00,
2013-06-13 07:00:00,81.7,49.7,29.98,West,270,0.4,1.1,33,0.00,,,0.00,WUHU216HW,2013-06-13 14:00:00,
2013-06-13 07:10:00,82.8,49.8,29.98,SSW,203,0.9,2.5,32,0.00,,,0.00,WUHU216HW,2013-06-13 14:10:00,
2013-06-13 07:20:00,84.1,51.0,29.98,SW,225,2.0,3.6,32,0.00,,,0.00,WUHU216HW,2013-06-13 14:20:00,
2013-06-13 07:30:00,84.8,50.8,29.98,SSW,203,1.1,2.0,31,0.00,,,0.00,WUHU216HW,2013-06-13 14:30:00,
2013-06-13 07:40:00,85.7,50.8,29.99,SSW,203,2.2,4.0,30,0.00,,,0.00,WUHU216HW,2013-06-13 14:40:00,
2013-06-13 07:50:00,86.4,50.3,29.99,South,180,1.6,4.5,29,0.00,,,0.00,WUHU216HW,2013-06-13 14:50:00,
2013-06-13 08:00:00,87.1,51.0,29.99,South,180,2.0,3.4,29,0.00,,,0.00,WUHU216HW,2013-06-13 15:00:00,
2013-06-13 08:10:00,87.8,50.4,29.99,South,180,3.8,5.6,28,0.00,,,0.00,WUHU216HW,2013-06-13 15:10:00,
2013-06-13 08:20:00,88.7,50.1,29.99,South,180,2.5,2.5,27,0.00,,,0.00,WUHU216HW,2013-06-13 15:20:00,
2013-06-13 08:30:00,89.6,49.9,29.98,NW,315,1.8,2.0,26,0.00,,,0.00,WUHU216HW,2013-06-13 15:30:00,
2013-06-13 08:40:00,90.7,49.7,29.98,NNW,338,2.5,3.8,25,0.00,,,0.00,WUHU216HW,2013-06-13 15:40:00,
2013-06-13 08:51:00,90.7,47.5,29.98,North,0,0.9,4.3,23,0.00,,,0.00,WUHU216HW,2013-06-13 15:51:00,
2013-06-13 09:01:00,90.9,47.7,29.98,West,270,0.7,5.1,23,0.00,,,0.00,WUHU216HW,2013-06-13 16:01:00,
2013-06-13 09:11:00,92.2,48.7,29.98,WSW,248,2.5,3.6,23,0.00,,,0.00,WUHU216HW,2013-06-13 16:11:00,
2013-06-13 09:21:00,92.9,49.2,29.98,NW,315,2.5,4.7,23,0.00,,,0.00,WUHU216HW,2013-06-13 16:21:00,
2013-06-13 09:31:00,93.4,49.7,29.98,NNW,338,2.5,4.9,23,0.00,,,0.00,WUHU216HW,2013-06-13 16:31:00,
2013-06-13 09:41:00,94.0,48.0,29.98,NW,315,2.0,6.9,21,0.00,,,0.00,WUHU216HW,2013-06-13 16:41:00,
2013-06-13 09:51:00,94.5,45.6,29.98,WNW,293,4.3,11.0,19,0.00,,,0.00,WUHU216HW,2013-06-13 16:51:00,
2013-06-13 10:01:00,95.4,48.1,29.98,North,0,2.5,8.1,20,0.00,,,0.00,WUHU216HW,2013-06-13 17:01:00,
2013-06-13 10:11:00,95.9,46.7,29.98,WNW,293,7.6,7.6,19,0.00,,,0.00,WUHU216HW,2013-06-13 17:11:00,
2013-06-13 10:21:00,96.3,47.1,29.98,WNW,293,2.0,4.7,19,0.00,,,0.00,WUHU216HW,2013-06-13 17:21:00,
2013-06-13 10:31:00,96.8,43.9,29.98,North,0,4.9,6.5,17,0.00,,,0.00,WUHU216HW,2013-06-13 17:31:00,
2013-06-13 10:41:00,97.2,42.4,29.98,NNW,338,5.4,6.5,16,0.00,,,0.00,WUHU216HW,2013-06-13 17:41:00,
2013-06-13 10:51:00,97.6,42.7,29.98,WNW,293,8.1,8.1,16,0.00,,,0.00,WUHU216HW,2013-06-13 17:51:00,
2013-06-13 11:01:00,97.9,43.0,29.98,NW,315,3.1,7.6,16,0.00,,,0.00,WUHU216HW,2013-06-13 18:01:00,
2013-06-13 11:11:00,98.8,43.8,29.97,WNW,293,3.6,8.3,16,0.00,,,0.00,WUHU216HW,2013-06-13 18:11:00,
2013-06-13 11:21:00,99.4,42.3,29.97,NW,315,6.9,8.7,15,0.00,,,0.00,WUHU216HW,2013-06-13 18:21:00,
2013-06-13 11:32:00,99.4,42.3,29.97,WSW,248,3.6,6.9,15,0.00,,,0.00,WUHU216HW,2013-06-13 18:32:00,
2013-06-13 11:42:00,99.5,44.3,29.96,NW,315,5.6,8.5,16,0.00,,,0.00,WUHU216HW,2013-06-13 18:42:00,
2013-06-13 11:52:00,100.4,45.0,29.96,NNW,338,8.1,8.5,16,0.00,,,0.00,WUHU216HW,2013-06-13 18:52:00,
2013-06-13 12:02:00,100.6,45.2,29.95,NNW,338,6.0,9.2,16,0.00,,,0.00,WUHU216HW,2013-06-13 19:02:00,
2013-06-13 12:12:00,100.6,45.2,29.95,NNW,338,1.1,6.9,16,0.00,,,0.00,WUHU216HW,2013-06-13 19:12:00,
2013-06-13 12:22:00,101.0,45.5,29.94,NNW,338,4.5,9.4,16,0.00,,,0.00,WUHU216HW,2013-06-13 19:22:00,
2013-06-13 12:32:00,101.2,42.0,29.94,NW,315,6.9,7.8,14,0.00,,,0.00,WUHU216HW,2013-06-13 19:32:00,
2013-06-13 12:42:00,102.2,42.8,29.94,NNW,338,6.9,9.2,14,0.00,,,0.00,WUHU216HW,2013-06-13 19:42:00,
2013-06-13 12:52:00,102.2,42.8,29.93,NNW,338,2.0,9.6,14,0.00,,,0.00,WUHU216HW,2013-06-13 19:52:00,
2013-06-13 13:02:00,102.4,42.8,29.93,NNW,338,4.9,9.2,14,0.00,,,0.00,WUHU216HW,2013-06-13 20:02:00,
2013-06-13 13:12:00,103.0,43.3,29.93,NW,315,8.3,9.6,14,0.00,,,0.00,WUHU216HW,2013-06-13 20:12:00,
2013-06-13 13:22:00,103.0,43.3,29.92,West,270,10.5,11.2,14,0.00,,,0.00,WUHU216HW,2013-06-13 20:22:00,
2013-06-13 13:32:00,103.3,40.0,29.92,NW,315,6.7,9.8,12,0.00,,,0.00,WUHU216HW,2013-06-13 20:32:00,
2013-06-13 13:42:00,103.3,43.6,29.91,NW,315,8.1,9.2,14,0.00,,,0.00,WUHU216HW,2013-06-13 20:42:00,
2013-06-13 13:52:00,103.3,40.0,29.90,North,0,6.9,8.9,12,0.00,,,0.00,WUHU216HW,2013-06-13 20:52:00,
2013-06-13 14:02:00,103.1,39.8,29.90,NW,315,7.4,9.2,12,0.00,,,0.00,WUHU216HW,2013-06-13 21:02:00,
2013-06-13 14:12:00,103.3,40.0,29.90,WNW,293,6.3,12.1,12,0.00,,,0.00,WUHU216HW,2013-06-13 21:12:00,
2013-06-13 14:22:00,103.1,39.8,29.89,WNW,293,8.9,11.6,12,0.00,,,0.00,WUHU216HW,2013-06-13 21:22:00,
2013-06-13 14:32:00,103.0,37.9,29.89,NW,315,8.1,11.6,11,0.00,,,0.00,WUHU216HW,2013-06-13 21:32:00,
2013-06-13 14:42:00,102.8,37.7,29.88,NNW,338,6.9,11.0,11,0.00,,,0.00,WUHU216HW,2013-06-13 21:42:00,
2013-06-13 14:52:00,103.0,39.7,29.88,WNW,293,10.1,12.1,12,0.00,,,0.00,WUHU216HW,2013-06-13 21:52:00,
2013-06-13 15:03:00,103.3,40.0,29.88,NNW,338,14.3,14.3,12,0.00,,,0.00,WUHU216HW,2013-06-13 22:03:00,
2013-06-13 15:13:00,103.3,38.2,29.87,North,0,7.2,11.9,11,0.00,,,0.00,WUHU216HW,2013-06-13 22:13:00,
2013-06-13 15:23:00,103.1,39.8,29.87,NW,315,8.1,11.6,12,0.00,,,0.00,WUHU216HW,2013-06-13 22:23:00,
2013-06-13 15:33:00,103.3,38.2,29.87,NNW,338,4.9,9.2,11,0.00,,,0.00,WUHU216HW,2013-06-13 22:33:00,
2013-06-13 15:43:00,103.3,40.0,29.87,NW,315,5.1,12.1,12,0.00,,,0.00,WUHU216HW,2013-06-13 22:43:00,
2013-06-13 15:53:00,103.5,38.3,29.86,NE,45,5.4,10.7,11,0.00,,,0.00,WUHU216HW,2013-06-13 22:53:00,
2013-06-13 16:03:00,103.3,40.0,29.86,West,270,11.9,11.9,12,0.00,,,0.00,WUHU216HW,2013-06-13 23:03:00,
2013-06-13 16:13:00,103.1,39.8,29.85,North,0,4.9,11.0,12,0.00,,,0.00,WUHU216HW,2013-06-13 23:13:00,
2013-06-13 16:23:00,102.8,39.5,29.85,NNW,338,8.9,9.8,12,0.00,,,0.00,WUHU216HW,2013-06-13 23:23:00,
2013-06-13 16:33:00,102.4,39.2,29.85,NE,45,7.4,11.4,12,0.00,,,0.00,WUHU216HW,2013-06-13 23:33:00,
2013-06-13 16:43:00,102.2,39.1,29.84,NW,315,8.5,9.8,12,0.00,,,0.00,WUHU216HW,2013-06-13 23:43:00,
2013-06-13 16:53:00,102.2,39.1,29.84,NNW,338,3.6,9.8,12,0.00,,,0.00,WUHU216HW,2013-06-13 23:53:00,
2013-06-13 17:03:00,102.4,39.2,29.83,NNE,23,3.1,14.3,12,0.00,,,0.00,WUHU216HW,2013-06-14 00:03:00,
2013-06-13 17:13:00,102.4,39.2,29.83,NNW,338,7.8,8.9,12,0.00,,,0.00,WUHU216HW,2013-06-14 00:13:00,
2013-06-13 17:23:00,102.1,39.0,29.84,WNW,293,2.7,9.6,12,0.00,,,0.00,WUHU216HW,2013-06-14 00:23:00,
2013-06-13 17:33:00,101.7,38.7,29.83,NNE,23,4.0,10.3,12,0.00,,,0.00,WUHU216HW,2013-06-14 00:33:00,
2013-06-13 17:43:00,101.7,38.7,29.83,NNE,23,7.4,8.7,12,0.00,,,0.00,WUHU216HW,2013-06-14 00:43:00,
2013-06-13 17:53:00,101.3,42.0,29.83,North,0,2.2,11.4,14,0.00,,,0.00,WUHU216HW,2013-06-14 00:53:00,
2013-06-13 18:03:00,101.2,38.4,29.83,NNE,23,2.5,7.4,12,0.00,,,0.00,WUHU216HW,2013-06-14 01:03:00,
2013-06-13 18:13:00,100.8,41.7,29.83,North,0,3.4,5.4,14,0.00,,,0.00,WUHU216HW,2013-06-14 01:13:00,
2013-06-13 18:23:00,100.6,41.5,29.83,NNE,23,8.9,8.9,14,0.00,,,0.00,WUHU216HW,2013-06-14 01:23:00,
2013-06-13 18:34:00,100.1,41.1,29.83,WNW,293,2.7,9.6,14,0.00,,,0.00,WUHU216HW,2013-06-14 01:34:00,
2013-06-13 18:44:00,99.7,40.9,29.84,West,270,4.5,9.8,14,0.00,,,0.00,WUHU216HW,2013-06-14 01:44:00,
2013-06-13 18:54:00,99.2,38.6,29.84,NE,45,2.5,7.8,13,0.00,,,0.00,WUHU216HW,2013-06-14 01:54:00,
2013-06-13 19:04:00,98.8,42.0,29.84,NNW,338,2.5,6.9,15,0.00,,,0.00,WUHU216HW,2013-06-14 02:04:00,
2013-06-13 19:14:00,98.1,41.3,29.84,NW,315,1.6,3.8,15,0.00,,,0.00,WUHU216HW,2013-06-14 02:14:00,
2013-06-13 19:24:00,97.6,40.9,29.84,NW,315,3.4,5.8,15,0.00,,,0.00,WUHU216HW,2013-06-14 02:24:00,
2013-06-13 19:34:00,96.8,42.1,29.84,NE,45,3.4,3.4,16,0.00,,,0.00,WUHU216HW,2013-06-14 02:34:00,
2013-06-13 19:44:00,96.5,41.9,29.84,North,0,2.5,7.8,16,0.00,,,0.00,WUHU216HW,2013-06-14 02:44:00,
2013-06-13 19:54:00,96.1,41.5,29.85,NNE,23,8.5,8.5,16,0.00,,,0.00,WUHU216HW,2013-06-14 02:54:00,
2013-06-13 20:04:00,95.9,41.4,29.85,NNE,23,2.9,7.8,16,0.00,,,0.00,WUHU216HW,2013-06-14 03:04:00,
2013-06-13 20:14:00,95.4,42.8,29.85,WNW,293,1.8,6.3,17,0.00,,,0.00,WUHU216HW,2013-06-14 03:14:00,
2013-06-13 20:24:00,95.0,42.4,29.85,North,0,3.8,3.8,17,0.00,,,0.00,WUHU216HW,2013-06-14 03:24:00,
2013-06-13 20:34:00,94.5,41.9,29.85,North,0,2.5,4.0,17,0.00,,,0.00,WUHU216HW,2013-06-14 03:34:00,
2013-06-13 20:44:00,94.1,43.5,29.86,North,0,3.4,4.5,18,0.00,,,0.00,WUHU216HW,2013-06-14 03:44:00,
2013-06-13 20:54:00,93.8,43.2,29.86,NW,315,1.8,3.1,18,0.00,,,0.00,WUHU216HW,2013-06-14 03:54:00,
2013-06-13 21:04:00,93.2,42.8,29.86,NNW,338,1.1,2.5,18,0.00,,,0.00,WUHU216HW,2013-06-14 04:04:00,
2013-06-13 21:14:00,92.7,42.3,29.87,NNW,338,3.1,4.0,18,0.00,,,0.00,WUHU216HW,2013-06-14 04:14:00,
2013-06-13 21:24:00,92.2,43.7,29.87,WNW,293,1.1,3.4,19,0.00,,,0.00,WUHU216HW,2013-06-14 04:24:00,
2013-06-13 21:34:00,91.4,43.1,29.87,WNW,293,1.3,1.6,19,0.00,,,0.00,WUHU216HW,2013-06-14 04:34:00,
2013-06-13 21:45:00,90.7,44.3,29.88,NNW,338,0.7,2.7,20,0.00,,,0.00,WUHU216HW,2013-06-14 04:45:00,
2013-06-13 21:55:00,90.0,44.7,29.88,NNW,338,0.4,2.2,21,0.00,,,0.00,WUHU216HW,2013-06-14 04:55:00,
2013-06-13 22:05:00,89.5,44.3,29.88,WNW,293,1.3,2.0,21,0.00,,,0.00,WUHU216HW,2013-06-14 05:05:00,
2013-06-13 22:15:00,89.1,44.0,29.89,WSW,248,1.8,2.9,21,0.00,,,0.00,WUHU216HW,2013-06-14 05:15:00,
2013-06-13 22:25:00,88.6,44.6,29.89,West,270,1.6,2.0,22,0.00,,,0.00,WUHU216HW,2013-06-14 05:25:00,
2013-06-13 22:35:00,88.2,44.4,29.89,NW,315,1.6,3.8,22,0.00,,,0.00,WUHU216HW,2013-06-14 05:35:00,
2013-06-13 22:45:00,88.2,45.5,29.89,ESE,113,0.4,3.4,23,0.00,,,0.00,WUHU216HW,2013-06-14 05:45:00,
2013-06-13 22:55:00,87.8,44.1,29.89,SE,135,0.9,1.8,22,0.00,,,0.00,WUHU216HW,2013-06-14 05:55:00,
2013-06-13 23:05:00,87.1,44.5,29.90,NNW,338,0.4,1.6,23,0.00,,,0.00,WUHU216HW,2013-06-14 06:05:00,
2013-06-13 23:15:00,86.8,47.4,29.90,NNE,23,6.9,6.9,26,0.00,,,0.00,WUHU216HW,2013-06-14 06:15:00,
2013-06-13 23:25:00,86.9,49.7,29.90,NNE,23,6.3,10.5,28,0.00,,,0.00,WUHU216HW,2013-06-14 06:25:00,
2013-06-13 23:35:00,86.9,48.6,29.90,WNW,293,3.4,5.6,27,0.00,,,0.00,WUHU216HW,2013-06-14 06:35:00,
2013-06-13 23:45:00,86.6,49.4,29.91,NNW,338,0.4,5.4,28,0.00,,,0.00,WUHU216HW,2013-06-14 06:45:00,
2013-06-13 23:55:00,86.2,49.2,29.91,North,0,2.2,5.4,28,0.00,,,0.00,WUHU216HW,2013-06-14 06:55:00,